createdAt,value
2018-05-10T00:00:59.134Z,992.3
2018-05-10T00:02:00.490Z,992.3
2018-05-10T00:03:01.854Z,992.3
2018-05-10T00:04:03.211Z,992.3
2018-05-10T00:05:04.571Z,992.4
2018-05-10T00:06:05.921Z,992.4
2018-05-10T00:07:07.274Z,992.4
2018-05-10T00:08:08.634Z,992.4
2018-05-10T00:09:09.999Z,992.4
2018-05-10T00:10:11.355Z,992.3
2018-05-10T00:11:12.720Z,992.3
2018-05-10T00:12:14.090Z,992.3
2018-05-10T00:13:15.446Z,992.3
2018-05-10T00:14:16.802Z,992.3
2018-05-10T00:15:18.168Z,992.3
2018-05-10T00:16:19.529Z,992.3
2018-05-10T00:17:20.895Z,992.3
2018-05-10T00:18:22.249Z,992.3
2018-05-10T00:19:23.615Z,992.2
2018-05-10T00:20:24.972Z,992.3
2018-05-10T00:21:26.324Z,992.3
2018-05-10T00:22:27.688Z,992.3
2018-05-10T00:23:29.047Z,992.2
2018-05-10T00:24:30.418Z,992.2
2018-05-10T00:25:31.779Z,992.2
2018-05-10T00:26:33.132Z,992.3
2018-05-10T00:27:34.496Z,992.2
2018-05-10T00:28:35.881Z,992.2
2018-05-10T00:29:37.235Z,992.2
2018-05-10T00:30:38.602Z,992.2
2018-05-10T00:31:40.008Z,992.2
2018-05-10T00:32:41.366Z,992.2
2018-05-10T00:33:42.717Z,992.2
2018-05-10T00:34:44.070Z,992.2
2018-05-10T00:35:45.440Z,992.2
2018-05-10T00:36:46.796Z,992.2
2018-05-10T00:37:48.161Z,992.2
2018-05-10T00:38:49.519Z,992.1
2018-05-10T00:39:50.886Z,992.1
2018-05-10T00:40:52.242Z,992.1
2018-05-10T00:41:53.601Z,992.1
2018-05-10T00:42:54.955Z,992.1
2018-05-10T00:43:56.313Z,992.1
2018-05-10T00:44:57.674Z,992.1
2018-05-10T00:45:59.032Z,992.1
2018-05-10T00:47:00.396Z,992.1
2018-05-10T00:48:01.761Z,992.1
2018-05-10T00:49:03.671Z,992.0
2018-05-10T00:50:05.046Z,992.0
2018-05-10T00:51:06.501Z,992.0
2018-05-10T00:52:07.785Z,992.1
2018-05-10T00:53:09.272Z,992.0
2018-05-10T00:54:10.630Z,992.0
2018-05-10T00:55:11.987Z,992.0
2018-05-10T00:56:13.348Z,992.0
2018-05-10T00:57:14.711Z,992.0
2018-05-10T00:58:16.074Z,992.0
2018-05-10T00:59:17.434Z,992.0
2018-05-10T01:00:18.789Z,992.0
2018-05-10T01:01:20.146Z,992.0
2018-05-10T01:02:21.506Z,992.0
2018-05-10T01:03:22.858Z,992.0
2018-05-10T01:04:24.219Z,992.0
2018-05-10T01:05:25.576Z,992.0
2018-05-10T01:06:26.945Z,992.0
2018-05-10T01:07:28.298Z,992.0
2018-05-10T01:08:29.658Z,992.0
2018-05-10T01:09:31.776Z,992.1
2018-05-10T01:10:33.370Z,992.1
2018-05-10T01:11:34.723Z,992.1
2018-05-10T01:12:36.083Z,992.0
2018-05-10T01:13:37.450Z,992.0
2018-05-10T01:14:38.810Z,992.0
2018-05-10T01:15:40.165Z,992.0
2018-05-10T01:16:41.513Z,992.0
2018-05-10T01:17:42.872Z,992.0
2018-05-10T01:18:44.253Z,992.0
2018-05-10T01:19:45.609Z,992.0
2018-05-10T01:20:46.976Z,992.1
2018-05-10T01:21:48.333Z,992.1
2018-05-10T01:22:49.712Z,992.1
2018-05-10T01:23:51.066Z,992.0
2018-05-10T01:24:52.424Z,992.0
2018-05-10T01:25:53.779Z,992.0
2018-05-10T01:26:55.138Z,992.0
2018-05-10T01:27:56.492Z,992.1
2018-05-10T01:28:57.861Z,992.0
2018-05-10T01:29:59.221Z,992.1
2018-05-10T01:31:00.597Z,992.1
2018-05-10T01:32:01.957Z,992.0
2018-05-10T01:33:03.308Z,992.1
2018-05-10T01:34:04.659Z,992.1
2018-05-10T01:35:06.021Z,992.1
2018-05-10T01:36:07.377Z,992.1
2018-05-10T01:37:08.738Z,992.1
2018-05-10T01:38:10.126Z,992.1
2018-05-10T01:39:11.482Z,992.1
2018-05-10T01:40:12.843Z,992.1
2018-05-10T01:41:14.197Z,992.1
2018-05-10T01:42:15.556Z,992.1
2018-05-10T01:43:16.919Z,992.1
2018-05-10T01:44:18.277Z,992.1
2018-05-10T01:45:19.632Z,992.1
2018-05-10T01:46:20.994Z,992.2
2018-05-10T01:47:22.352Z,992.2
2018-05-10T01:48:23.776Z,992.2
2018-05-10T01:49:25.072Z,992.2
2018-05-10T01:50:26.440Z,992.2
2018-05-10T01:51:27.801Z,992.2
2018-05-10T01:52:29.146Z,992.2
2018-05-10T01:53:30.513Z,992.2
2018-05-10T01:54:31.869Z,992.2
2018-05-10T01:55:33.219Z,992.2
2018-05-10T01:56:34.580Z,992.2
2018-05-10T01:57:35.944Z,992.2
2018-05-10T01:58:37.297Z,992.2
2018-05-10T01:59:38.672Z,992.2
2018-05-10T02:00:40.036Z,992.2
2018-05-10T02:01:41.402Z,992.2
2018-05-10T02:02:56.533Z,992.2
2018-05-10T02:03:57.899Z,992.2
2018-05-10T02:04:59.254Z,992.1
2018-05-10T02:06:00.621Z,992.1
2018-05-10T02:07:01.974Z,992.1
2018-05-10T02:08:03.372Z,992.1
2018-05-10T02:09:04.731Z,992.1
2018-05-10T02:10:06.091Z,992.1
2018-05-10T02:11:07.456Z,992.1
2018-05-10T02:12:08.829Z,992.1
2018-05-10T02:13:10.190Z,992.1
2018-05-10T02:14:11.571Z,992.1
2018-05-10T02:15:12.923Z,992.1
2018-05-10T02:16:14.277Z,992.1
2018-05-10T02:17:15.646Z,992.1
2018-05-10T02:18:16.994Z,992.1
2018-05-10T02:19:18.352Z,992.1
2018-05-10T02:20:19.724Z,992.1
2018-05-10T02:21:21.088Z,992.1
2018-05-10T02:22:22.465Z,992.1
2018-05-10T02:23:23.822Z,992.2
2018-05-10T02:24:25.183Z,992.2
2018-05-10T02:25:26.546Z,992.2
2018-05-10T02:26:27.906Z,992.2
2018-05-10T02:27:29.280Z,992.2
2018-05-10T02:28:30.636Z,992.3
2018-05-10T02:29:31.991Z,992.3
2018-05-10T02:30:33.348Z,992.3
2018-05-10T02:31:34.701Z,992.3
2018-05-10T02:32:36.067Z,992.3
2018-05-10T02:33:37.429Z,992.2
2018-05-10T02:34:38.913Z,992.2
2018-05-10T02:35:40.267Z,992.3
2018-05-10T02:36:41.619Z,992.3
2018-05-10T02:37:43.020Z,992.2
2018-05-10T02:38:44.387Z,992.3
2018-05-10T02:39:45.733Z,992.3
2018-05-10T02:40:47.094Z,992.3
2018-05-10T02:41:48.446Z,992.3
2018-05-10T02:42:49.832Z,992.3
2018-05-10T02:43:51.188Z,992.3
2018-05-10T02:44:52.572Z,992.3
2018-05-10T02:45:53.903Z,992.3
2018-05-10T02:46:55.269Z,992.3
2018-05-10T02:47:56.618Z,992.3
2018-05-10T02:48:57.983Z,992.3
2018-05-10T02:49:59.334Z,992.3
2018-05-10T02:51:00.699Z,992.3
2018-05-10T02:52:02.058Z,992.3
2018-05-10T02:53:03.423Z,992.3
2018-05-10T02:54:04.768Z,992.4
2018-05-10T02:55:06.131Z,992.4
2018-05-10T02:56:07.490Z,992.4
2018-05-10T02:57:08.867Z,992.4
2018-05-10T02:58:10.235Z,992.4
2018-05-10T02:59:11.593Z,992.4
2018-05-10T03:00:12.955Z,992.4
2018-05-10T03:01:14.309Z,992.4
2018-05-10T03:02:15.672Z,992.4
2018-05-10T03:03:17.031Z,992.4
2018-05-10T03:04:18.387Z,992.4
2018-05-10T03:05:19.751Z,992.4
2018-05-10T03:06:21.098Z,992.4
2018-05-10T03:07:22.456Z,992.5
2018-05-10T03:08:23.809Z,992.5
2018-05-10T03:09:25.165Z,992.5
2018-05-10T03:10:26.533Z,992.5
2018-05-10T03:11:27.884Z,992.6
2018-05-10T03:12:29.244Z,992.6
2018-05-10T03:13:30.717Z,992.6
2018-05-10T03:14:32.078Z,992.6
2018-05-10T03:15:33.451Z,992.6
2018-05-10T03:16:34.809Z,992.6
2018-05-10T03:17:36.176Z,992.6
2018-05-10T03:18:37.650Z,992.7
2018-05-10T03:19:39.022Z,992.7
2018-05-10T03:20:40.371Z,992.7
2018-05-10T03:21:41.729Z,992.7
2018-05-10T03:22:43.090Z,992.8
2018-05-10T03:23:44.467Z,992.8
2018-05-10T03:24:45.828Z,992.8
2018-05-10T03:25:47.187Z,992.8
2018-05-10T03:26:48.545Z,992.8
2018-05-10T03:27:49.896Z,992.9
2018-05-10T03:28:51.258Z,992.9
2018-05-10T03:29:52.612Z,992.9
2018-05-10T03:30:53.974Z,992.9
2018-05-10T03:31:55.326Z,992.9
2018-05-10T03:32:56.687Z,992.9
2018-05-10T03:33:58.049Z,993.0
2018-05-10T03:34:59.419Z,993.0
2018-05-10T03:36:00.780Z,993.0
2018-05-10T03:37:02.137Z,992.9
2018-05-10T03:38:03.522Z,992.9
2018-05-10T03:39:04.884Z,992.9
2018-05-10T03:40:06.236Z,992.9
2018-05-10T03:41:07.600Z,992.9
2018-05-10T03:42:08.946Z,992.9
2018-05-10T03:43:10.314Z,993.0
2018-05-10T03:44:11.675Z,993.0
2018-05-10T03:45:13.037Z,993.0
2018-05-10T03:46:14.407Z,993.0
2018-05-10T03:47:15.821Z,993.1
2018-05-10T03:48:17.132Z,993.1
2018-05-10T03:49:18.500Z,993.1
2018-05-10T03:50:19.856Z,993.1
2018-05-10T03:51:21.217Z,993.1
2018-05-10T03:52:22.579Z,993.2
2018-05-10T03:53:23.944Z,993.2
2018-05-10T03:54:25.300Z,993.2
2018-05-10T03:55:26.666Z,993.2
2018-05-10T03:56:28.022Z,993.2
2018-05-10T03:57:29.370Z,993.2
2018-05-10T03:58:30.743Z,993.2
2018-05-10T03:59:32.100Z,993.2
2018-05-10T04:00:33.464Z,993.2
2018-05-10T04:01:34.821Z,993.2
2018-05-10T04:02:36.173Z,993.2
2018-05-10T04:03:37.536Z,993.2
2018-05-10T04:04:38.900Z,993.2
2018-05-10T04:05:40.283Z,993.2
2018-05-10T04:06:41.644Z,993.3
2018-05-10T04:07:43.010Z,993.3
2018-05-10T04:08:44.365Z,993.3
2018-05-10T04:09:45.725Z,993.3
2018-05-10T04:10:47.092Z,993.3
2018-05-10T04:11:48.455Z,993.3
2018-05-10T04:12:49.827Z,993.3
2018-05-10T04:13:51.189Z,993.3
2018-05-10T04:14:52.551Z,993.3
2018-05-10T04:15:53.905Z,993.3
2018-05-10T04:16:55.268Z,993.4
2018-05-10T04:17:56.585Z,993.4
2018-05-10T04:18:57.955Z,993.4
2018-05-10T04:19:59.339Z,993.4
2018-05-10T04:21:00.695Z,993.4
2018-05-10T04:22:02.077Z,993.4
2018-05-10T04:23:03.432Z,993.4
2018-05-10T04:24:04.793Z,993.4
2018-05-10T04:25:06.155Z,993.4
2018-05-10T04:26:07.524Z,993.5
2018-05-10T04:27:08.881Z,993.5
2018-05-10T04:28:10.263Z,993.5
2018-05-10T04:29:11.626Z,993.5
2018-05-10T04:30:12.983Z,993.5
2018-05-10T04:31:14.346Z,993.5
2018-05-10T04:32:15.704Z,993.5
2018-05-10T04:33:17.062Z,993.5
2018-05-10T04:34:18.434Z,993.5
2018-05-10T04:35:19.798Z,993.5
2018-05-10T04:36:21.163Z,993.5
2018-05-10T04:37:22.523Z,993.5
2018-05-10T04:38:23.883Z,993.5
2018-05-10T04:39:25.241Z,993.5
2018-05-10T04:40:26.608Z,993.5
2018-05-10T04:41:27.968Z,993.5
2018-05-10T04:42:29.346Z,993.5
2018-05-10T04:43:30.714Z,993.6
2018-05-10T04:44:32.077Z,993.5
2018-05-10T04:45:33.460Z,993.6
2018-05-10T04:46:34.822Z,993.6
2018-05-10T04:47:36.179Z,993.6
2018-05-10T04:48:37.541Z,993.6
2018-05-10T04:49:38.907Z,993.6
2018-05-10T04:50:40.269Z,993.6
2018-05-10T04:51:41.629Z,993.7
2018-05-10T04:52:42.991Z,993.7
2018-05-10T04:53:44.357Z,993.7
2018-05-10T04:54:45.776Z,993.7
2018-05-10T04:55:47.084Z,993.8
2018-05-10T04:56:48.489Z,993.8
2018-05-10T04:57:49.850Z,993.8
2018-05-10T04:58:51.213Z,993.8
2018-05-10T04:59:52.578Z,993.8
2018-05-10T05:00:53.945Z,993.8
2018-05-10T05:01:55.308Z,993.8
2018-05-10T05:02:56.670Z,993.9
2018-05-10T05:03:58.034Z,993.8
2018-05-10T05:04:59.406Z,993.8
2018-05-10T05:06:00.779Z,993.9
2018-05-10T05:07:02.141Z,993.8
2018-05-10T05:08:03.516Z,993.8
2018-05-10T05:09:04.949Z,993.9
2018-05-10T05:10:06.206Z,993.9
2018-05-10T05:11:07.569Z,993.9
2018-05-10T05:12:08.935Z,993.9
2018-05-10T05:13:10.323Z,993.9
2018-05-10T05:14:11.677Z,993.9
2018-05-10T05:15:13.044Z,994.0
2018-05-10T05:16:14.405Z,993.9
2018-05-10T05:17:15.772Z,994.0
2018-05-10T05:18:17.132Z,994.0
2018-05-10T05:19:18.501Z,994.0
2018-05-10T05:20:19.886Z,994.0
2018-05-10T05:21:21.249Z,994.0
2018-05-10T05:22:22.613Z,994.1
2018-05-10T05:23:23.984Z,994.1
2018-05-10T05:24:25.364Z,994.1
2018-05-10T05:25:26.712Z,994.1
2018-05-10T05:26:28.084Z,994.2
2018-05-10T05:27:29.445Z,994.2
2018-05-10T05:28:30.805Z,994.2
2018-05-10T05:29:32.168Z,994.2
2018-05-10T05:30:33.532Z,994.3
2018-05-10T05:31:34.900Z,994.3
2018-05-10T05:32:36.359Z,994.3
2018-05-10T05:33:37.641Z,994.3
2018-05-10T05:34:39.004Z,994.3
2018-05-10T05:35:40.443Z,994.4
2018-05-10T05:36:41.807Z,994.4
2018-05-10T05:37:43.022Z,994.4
2018-05-10T05:38:44.385Z,994.5
2018-05-10T05:39:45.753Z,994.5
2018-05-10T05:40:47.119Z,994.5
2018-05-10T05:41:48.495Z,994.6
2018-05-10T05:42:49.857Z,994.6
2018-05-10T05:43:51.225Z,994.6
2018-05-10T05:44:52.593Z,994.6
2018-05-10T05:45:53.963Z,994.6
2018-05-10T05:46:55.324Z,994.6
2018-05-10T05:47:56.694Z,994.5
2018-05-10T05:48:58.062Z,994.6
2018-05-10T05:49:59.416Z,994.6
2018-05-10T05:51:00.779Z,994.6
2018-05-10T05:52:02.142Z,994.6
2018-05-10T05:53:03.515Z,994.6
2018-05-10T05:54:04.885Z,994.6
2018-05-10T05:55:06.341Z,994.6
2018-05-10T05:56:07.634Z,994.7
2018-05-10T05:57:09.014Z,994.7
2018-05-10T05:58:10.403Z,994.7
2018-05-10T05:59:11.771Z,994.7
2018-05-10T06:00:13.133Z,994.7
2018-05-10T06:01:14.494Z,994.6
2018-05-10T06:02:15.857Z,994.7
2018-05-10T06:03:17.225Z,994.7
2018-05-10T06:04:18.582Z,994.7
2018-05-10T06:05:19.957Z,994.7
2018-05-10T06:06:21.321Z,994.7
2018-05-10T06:07:22.690Z,994.7
2018-05-10T06:08:24.054Z,994.8
2018-05-10T06:09:25.419Z,994.7
2018-05-10T06:10:26.783Z,994.8
2018-05-10T06:11:28.163Z,994.8
2018-05-10T06:12:29.524Z,994.8
2018-05-10T06:13:30.899Z,994.8
2018-05-10T06:14:32.264Z,994.8
2018-05-10T06:15:33.656Z,994.8
2018-05-10T06:16:34.998Z,994.9
2018-05-10T06:17:36.355Z,994.9
2018-05-10T06:18:37.723Z,994.9
2018-05-10T06:19:39.086Z,994.9
2018-05-10T06:20:40.445Z,994.9
2018-05-10T06:21:41.818Z,994.9
2018-05-10T06:22:43.191Z,994.9
2018-05-10T06:23:44.560Z,994.9
2018-05-10T06:24:45.942Z,994.9
2018-05-10T06:25:47.261Z,994.9
2018-05-10T06:26:48.654Z,994.9
2018-05-10T06:27:50.039Z,995.0
2018-05-10T06:28:53.795Z,995.0
2018-05-10T06:29:55.266Z,995.0
2018-05-10T06:30:56.649Z,995.0
2018-05-10T06:31:58.022Z,995.0
2018-05-10T06:32:59.401Z,995.1
2018-05-10T06:34:00.771Z,995.2
2018-05-10T06:35:02.132Z,995.1
2018-05-10T06:36:03.500Z,995.2
2018-05-10T06:37:04.879Z,995.1
2018-05-10T06:38:06.256Z,995.1
2018-05-10T06:39:07.739Z,995.2
2018-05-10T06:40:09.115Z,995.2
2018-05-10T06:41:10.486Z,995.2
2018-05-10T06:42:11.854Z,995.2
2018-05-10T06:43:13.227Z,995.5
2018-05-10T06:44:14.595Z,995.1
2018-05-10T06:45:15.977Z,995.1
2018-05-10T06:46:17.334Z,995.2
2018-05-10T06:47:18.693Z,995.2
2018-05-10T06:48:20.103Z,995.1
2018-05-10T06:49:21.465Z,995.2
2018-05-10T06:50:22.827Z,995.2
2018-05-10T06:51:24.219Z,995.2
2018-05-10T06:52:25.590Z,995.2
2018-05-10T06:53:26.958Z,995.2
2018-05-10T06:54:28.316Z,995.3
2018-05-10T06:55:29.697Z,995.3
2018-05-10T06:56:31.053Z,995.3
2018-05-10T06:57:32.428Z,995.4
2018-05-10T06:58:33.813Z,995.5
2018-05-10T06:59:36.718Z,995.4
2018-05-10T07:00:39.385Z,995.5
2018-05-10T07:01:40.767Z,995.7
2018-05-10T07:02:42.150Z,995.9
2018-05-10T07:03:43.504Z,995.8
2018-05-10T07:04:44.876Z,995.9
2018-05-10T07:05:46.257Z,995.7
2018-05-10T07:06:47.640Z,995.7
2018-05-10T07:07:49.000Z,995.4
2018-05-10T07:08:50.378Z,995.4
2018-05-10T07:09:51.870Z,995.4
2018-05-10T07:10:53.117Z,995.5
2018-05-10T07:11:54.485Z,995.5
2018-05-10T07:12:55.851Z,995.7
2018-05-10T07:13:57.224Z,995.8
2018-05-10T07:14:58.591Z,996.0
2018-05-10T07:15:59.953Z,996.1
2018-05-10T07:17:01.314Z,995.9
2018-05-10T07:18:02.721Z,995.9
2018-05-10T07:19:04.089Z,996.3
2018-05-10T07:20:05.447Z,996.8
2018-05-10T07:21:06.819Z,996.3
2018-05-10T07:22:08.192Z,996.3
2018-05-10T07:23:09.614Z,996.3
2018-05-10T07:24:10.995Z,996.0
2018-05-10T07:25:12.478Z,995.9
2018-05-10T07:26:13.727Z,995.8
2018-05-10T07:27:15.104Z,995.8
2018-05-10T07:28:16.495Z,996.3
2018-05-10T07:29:17.872Z,996.6
2018-05-10T07:30:19.248Z,996.1
2018-05-10T07:31:20.616Z,996.3
2018-05-10T07:32:21.992Z,996.3
2018-05-10T07:33:23.364Z,996.2
2018-05-10T07:34:24.734Z,996.1
2018-05-10T07:35:26.105Z,996.1
2018-05-10T07:36:27.472Z,996.0
2018-05-10T07:37:28.844Z,996.1
2018-05-10T07:38:30.214Z,996.3
2018-05-10T07:39:31.586Z,996.1
2018-05-10T07:40:32.962Z,995.9
2018-05-10T07:41:34.356Z,995.8
2018-05-10T07:42:35.759Z,995.8
2018-05-10T07:43:37.322Z,995.7
2018-05-10T07:44:38.725Z,995.7
2018-05-10T07:45:40.157Z,995.7
2018-05-10T07:46:41.564Z,995.7
2018-05-10T07:47:42.940Z,995.9
2018-05-10T07:48:44.315Z,995.8
2018-05-10T07:49:45.689Z,995.9
2018-05-10T07:50:47.126Z,995.9
2018-05-10T07:51:48.499Z,995.9
2018-05-10T07:52:49.912Z,995.9
2018-05-10T07:53:51.242Z,996.0
2018-05-10T07:54:52.617Z,996.0
2018-05-10T07:55:53.997Z,996.0
2018-05-10T07:56:55.376Z,996.0
2018-05-10T07:57:56.744Z,996.0
2018-05-10T07:58:58.115Z,996.0
2018-05-10T07:59:59.483Z,996.1
2018-05-10T08:01:00.857Z,996.1
2018-05-10T08:02:02.225Z,996.1
2018-05-10T08:03:03.622Z,996.0
2018-05-10T08:04:05.008Z,995.9
2018-05-10T08:05:06.382Z,995.8
2018-05-10T08:06:07.766Z,995.9
2018-05-10T08:07:09.128Z,995.9
2018-05-10T08:08:10.517Z,995.9
2018-05-10T08:09:11.887Z,996.0
2018-05-10T08:10:13.274Z,996.0
2018-05-10T08:11:14.669Z,996.1
2018-05-10T08:12:16.031Z,996.2
2018-05-10T08:13:17.408Z,996.3
2018-05-10T08:14:18.796Z,996.5
2018-05-10T08:15:20.177Z,996.7
2018-05-10T08:16:21.543Z,996.8
2018-05-10T08:17:22.915Z,996.9
2018-05-10T08:18:24.291Z,998.3
2018-05-10T08:19:25.663Z,997.9
2018-05-10T08:20:27.052Z,997.5
2018-05-10T08:21:28.429Z,997.3
2018-05-10T08:22:29.806Z,997.3
2018-05-10T08:23:31.179Z,997.0
2018-05-10T08:24:32.556Z,996.9
2018-05-10T08:25:33.946Z,996.8
2018-05-10T08:26:35.324Z,996.7
2018-05-10T08:27:36.822Z,996.8
2018-05-10T08:28:38.201Z,996.9
2018-05-10T08:29:39.605Z,996.9
2018-05-10T08:30:40.959Z,996.8
2018-05-10T08:31:42.345Z,996.7
2018-05-10T08:32:43.734Z,996.8
2018-05-10T08:33:45.108Z,996.8
2018-05-10T08:34:46.479Z,996.8
2018-05-10T08:35:47.848Z,996.8
2018-05-10T08:36:49.258Z,996.7
2018-05-10T08:37:50.563Z,996.7
2018-05-10T08:38:51.936Z,996.7
2018-05-10T08:39:53.303Z,996.7
2018-05-10T08:40:57.060Z,996.8
2018-05-10T08:41:58.315Z,996.9
2018-05-10T08:42:59.680Z,997.0
2018-05-10T08:44:01.160Z,997.0
2018-05-10T08:45:02.621Z,997.1
2018-05-10T08:46:03.922Z,997.2
2018-05-10T08:47:05.312Z,997.5
2018-05-10T08:48:06.703Z,997.1
2018-05-10T08:49:08.070Z,997.1
2018-05-10T08:50:09.446Z,997.0
2018-05-10T08:51:10.848Z,996.8
2018-05-10T08:52:12.220Z,996.8
2018-05-10T08:53:13.597Z,997.0
2018-05-10T08:54:14.972Z,997.1
2018-05-10T08:55:16.335Z,997.1
2018-05-10T08:56:17.710Z,997.2
2018-05-10T08:57:19.084Z,997.3
2018-05-10T08:58:20.465Z,997.3
2018-05-10T08:59:21.845Z,997.5
2018-05-10T09:00:23.215Z,997.4
2018-05-10T09:01:24.595Z,997.3
2018-05-10T09:02:25.959Z,997.3
2018-05-10T09:03:27.542Z,997.4
2018-05-10T09:04:28.912Z,997.5
2018-05-10T09:05:30.280Z,997.5
2018-05-10T09:06:31.667Z,997.4
2018-05-10T09:07:33.038Z,997.4
2018-05-10T09:08:34.432Z,997.4
2018-05-10T09:09:35.804Z,997.4
2018-05-10T09:10:37.171Z,997.3
2018-05-10T09:11:38.551Z,997.3
2018-05-10T09:12:40.187Z,997.4
2018-05-10T09:13:41.564Z,997.5
2018-05-10T09:14:42.934Z,997.5
2018-05-10T09:15:44.312Z,997.6
2018-05-10T09:16:45.683Z,997.7
2018-05-10T09:17:47.057Z,997.8
2018-05-10T09:18:48.448Z,997.8
2018-05-10T09:19:49.820Z,997.7
2018-05-10T09:20:51.196Z,997.7
2018-05-10T09:21:52.648Z,997.8
2018-05-10T09:22:53.950Z,997.8
2018-05-10T09:23:55.325Z,997.6
2018-05-10T09:24:56.708Z,997.5
2018-05-10T09:25:58.113Z,997.5
2018-05-10T09:26:59.461Z,997.5
2018-05-10T09:28:00.836Z,997.5
2018-05-10T09:29:02.207Z,997.5
2018-05-10T09:30:03.585Z,997.5
2018-05-10T09:31:04.955Z,997.4
2018-05-10T09:32:06.328Z,997.3
2018-05-10T09:33:07.706Z,997.2
2018-05-10T09:34:09.082Z,997.3
2018-05-10T09:35:10.465Z,997.3
2018-05-10T09:36:11.831Z,997.3
2018-05-10T09:37:13.211Z,997.3
2018-05-10T09:38:14.578Z,997.3
2018-05-10T09:39:16.066Z,997.4
2018-05-10T09:40:17.327Z,997.4
2018-05-10T09:41:18.736Z,997.4
2018-05-10T09:42:20.082Z,997.6
2018-05-10T09:43:21.457Z,997.6
2018-05-10T09:44:22.843Z,997.7
2018-05-10T09:45:24.211Z,997.8
2018-05-10T09:46:25.587Z,997.8
2018-05-10T09:47:26.953Z,997.7
2018-05-10T09:48:28.325Z,997.6
2018-05-10T09:49:29.702Z,997.7
2018-05-10T09:50:31.093Z,997.7
2018-05-10T09:51:32.457Z,997.7
2018-05-10T09:52:33.889Z,997.8
2018-05-10T09:53:36.063Z,997.7
2018-05-10T09:54:36.515Z,997.7
2018-05-10T09:55:37.881Z,997.7
2018-05-10T09:56:39.248Z,997.7
2018-05-10T09:57:40.622Z,997.7
2018-05-10T09:58:41.998Z,997.8
2018-05-10T09:59:43.378Z,997.7
2018-05-10T10:00:44.744Z,997.7
2018-05-10T10:01:46.118Z,997.7
2018-05-10T10:02:47.480Z,997.8
2018-05-10T10:03:48.846Z,997.7
2018-05-10T10:04:50.216Z,997.8
2018-05-10T10:05:51.603Z,997.8
2018-05-10T10:06:52.962Z,997.8
2018-05-10T10:07:54.339Z,997.8
2018-05-10T10:08:55.706Z,997.8
2018-05-10T10:09:57.082Z,997.8
2018-05-10T10:10:58.466Z,997.9
2018-05-10T10:11:59.837Z,997.8
2018-05-10T10:13:01.216Z,997.9
2018-05-10T10:14:02.593Z,997.9
2018-05-10T10:15:03.953Z,997.9
2018-05-10T10:16:06.204Z,997.9
2018-05-10T10:17:07.586Z,998.0
2018-05-10T10:18:08.987Z,998.0
2018-05-10T10:19:10.362Z,998.0
2018-05-10T10:20:11.738Z,998.0
2018-05-10T10:21:13.093Z,998.0
2018-05-10T10:22:14.450Z,998.0
2018-05-10T10:23:15.826Z,998.0
2018-05-10T10:24:17.215Z,998.0
2018-05-10T10:25:18.654Z,998.1
2018-05-10T10:26:19.943Z,998.1
2018-05-10T10:27:21.320Z,998.1
2018-05-10T10:28:22.687Z,998.1
2018-05-10T10:29:24.050Z,998.1
2018-05-10T10:30:25.412Z,998.2
2018-05-10T10:31:26.781Z,998.1
2018-05-10T10:32:28.186Z,998.2
2018-05-10T10:33:29.530Z,998.2
2018-05-10T10:34:30.954Z,998.2
2018-05-10T10:35:32.272Z,998.2
2018-05-10T10:36:33.647Z,998.3
2018-05-10T10:37:35.006Z,998.3
2018-05-10T10:38:36.375Z,998.3
2018-05-10T10:39:37.824Z,998.3
2018-05-10T10:40:39.119Z,998.3
2018-05-10T10:41:40.519Z,998.3
2018-05-10T10:42:41.882Z,998.3
2018-05-10T10:43:43.252Z,998.3
2018-05-10T10:44:44.566Z,998.3
2018-05-10T10:45:45.943Z,998.4
2018-05-10T10:46:47.337Z,998.4
2018-05-10T10:47:48.680Z,998.4
2018-05-10T10:48:50.068Z,998.3
2018-05-10T10:49:51.435Z,998.4
2018-05-10T10:50:52.813Z,998.5
2018-05-10T10:51:54.179Z,998.4
2018-05-10T10:52:55.565Z,998.5
2018-05-10T10:53:57.007Z,998.5
2018-05-10T10:54:58.293Z,998.5
2018-05-10T10:55:59.654Z,998.5
2018-05-10T10:57:01.032Z,998.5
2018-05-10T10:58:02.393Z,998.5
2018-05-10T10:59:03.776Z,998.4
2018-05-10T11:00:05.188Z,998.5
2018-05-10T11:01:06.503Z,998.5
2018-05-10T11:02:07.869Z,998.6
2018-05-10T11:03:09.226Z,998.6
2018-05-10T11:04:10.620Z,998.6
2018-05-10T11:05:11.995Z,998.7
2018-05-10T11:06:13.376Z,998.7
2018-05-10T11:07:14.747Z,998.8
2018-05-10T11:08:16.124Z,998.8
2018-05-10T11:09:17.528Z,998.8
2018-05-10T11:10:18.868Z,998.8
2018-05-10T11:11:20.243Z,998.8
2018-05-10T11:12:21.594Z,998.8
2018-05-10T11:13:22.972Z,998.8
2018-05-10T11:14:24.332Z,998.9
2018-05-10T11:15:25.701Z,998.8
2018-05-10T11:16:27.067Z,998.9
2018-05-10T11:17:28.436Z,998.8
2018-05-10T11:18:29.807Z,998.8
2018-05-10T11:19:31.175Z,998.8
2018-05-10T11:20:32.552Z,998.8
2018-05-10T11:21:33.922Z,998.9
2018-05-10T11:22:35.329Z,999.0
2018-05-10T11:23:36.707Z,999.0
2018-05-10T11:24:38.082Z,998.9
2018-05-10T11:25:39.462Z,998.9
2018-05-10T11:26:40.819Z,998.9
2018-05-10T11:27:42.197Z,998.9
2018-05-10T11:28:43.577Z,998.9
2018-05-10T11:29:44.944Z,999.0
2018-05-10T11:30:46.314Z,999.0
2018-05-10T11:31:47.689Z,999.0
2018-05-10T11:32:49.149Z,999.1
2018-05-10T11:33:50.391Z,999.1
2018-05-10T11:34:51.762Z,999.2
2018-05-10T11:35:53.127Z,999.2
2018-05-10T11:36:54.499Z,999.2
2018-05-10T11:37:55.867Z,999.2
2018-05-10T11:38:57.233Z,999.2
2018-05-10T11:39:58.615Z,999.3
2018-05-10T11:40:59.976Z,999.3
2018-05-10T11:42:01.391Z,999.3
2018-05-10T11:43:02.747Z,999.3
2018-05-10T11:44:04.128Z,999.3
2018-05-10T11:45:05.486Z,999.2
2018-05-10T11:46:06.867Z,999.1
2018-05-10T11:47:08.234Z,999.1
2018-05-10T11:48:09.603Z,999.1
2018-05-10T11:49:10.976Z,999.1
2018-05-10T11:50:12.360Z,999.2
2018-05-10T11:51:13.740Z,999.3
2018-05-10T11:52:15.108Z,999.3
2018-05-10T11:53:16.480Z,999.3
2018-05-10T11:54:17.855Z,999.3
2018-05-10T11:55:19.218Z,999.2
2018-05-10T11:56:20.584Z,999.1
2018-05-10T11:57:21.983Z,999.1
2018-05-10T11:58:23.325Z,999.2
2018-05-10T11:59:24.698Z,999.2
2018-05-10T12:00:26.059Z,999.2
2018-05-10T12:01:27.441Z,999.2
2018-05-10T12:02:28.853Z,999.2
2018-05-10T12:03:30.186Z,999.1
2018-05-10T12:04:31.550Z,999.3
2018-05-10T12:05:32.925Z,999.3
2018-05-10T12:06:34.307Z,999.4
2018-05-10T12:07:35.673Z,999.4
2018-05-10T12:08:37.049Z,999.4
2018-05-10T12:09:38.415Z,999.3
2018-05-10T12:10:39.795Z,999.4
2018-05-10T12:11:41.173Z,999.5
2018-05-10T12:12:42.547Z,999.6
2018-05-10T12:13:43.914Z,999.6
2018-05-10T12:14:45.275Z,999.7
2018-05-10T12:15:46.639Z,999.6
2018-05-10T12:16:48.541Z,999.5
2018-05-10T12:17:49.900Z,999.5
2018-05-10T12:18:51.305Z,999.6
2018-05-10T12:19:52.688Z,999.5
2018-05-10T12:20:54.050Z,999.6
2018-05-10T12:21:55.432Z,999.6
2018-05-10T12:22:56.795Z,999.6
2018-05-10T12:23:58.160Z,999.7
2018-05-10T12:24:59.521Z,999.8
2018-05-10T12:26:00.923Z,999.8
2018-05-10T12:27:02.316Z,999.8
2018-05-10T12:28:03.754Z,999.8
2018-05-10T12:29:05.159Z,999.7
2018-05-10T12:30:06.520Z,999.6
2018-05-10T12:31:07.910Z,999.6
2018-05-10T12:32:09.270Z,999.7
2018-05-10T12:33:10.673Z,999.9
2018-05-10T12:34:12.059Z,999.9
2018-05-10T12:35:13.437Z,1000.0
2018-05-10T12:36:14.810Z,1000.0
2018-05-10T12:37:16.260Z,999.9
2018-05-10T12:38:18.029Z,1000.0
2018-05-10T12:39:20.034Z,999.9
2018-05-10T12:40:21.438Z,1000.0
2018-05-10T12:41:22.823Z,1000.1
2018-05-10T12:42:24.235Z,1000.1
2018-05-10T12:43:25.851Z,1000.1
2018-05-10T12:44:27.486Z,1000.1
2018-05-10T12:45:29.859Z,1000.1
2018-05-10T12:46:31.378Z,1000.2
2018-05-10T12:47:33.036Z,1000.3
2018-05-10T12:48:34.787Z,1000.5
2018-05-10T12:49:36.159Z,1000.5
2018-05-10T12:50:37.840Z,1000.5
2018-05-10T12:51:40.212Z,1000.6
2018-05-10T12:52:42.203Z,1000.3
2018-05-10T12:53:43.770Z,1000.2
2018-05-10T12:54:45.275Z,1000.2
2018-05-10T12:55:47.055Z,1000.0
2018-05-10T12:56:48.820Z,1000.1
2018-05-10T12:57:50.367Z,1000.2
2018-05-10T12:58:52.021Z,1000.4
2018-05-10T12:59:53.567Z,1000.6
2018-05-10T13:00:55.030Z,1000.4
2018-05-10T13:01:56.513Z,1000.1
2018-05-10T13:02:59.602Z,1000.0
2018-05-10T13:04:01.347Z,1000.1
2018-05-10T13:05:03.105Z,1000.2
2018-05-10T13:06:04.619Z,1000.1
2018-05-10T13:07:06.065Z,999.9
2018-05-10T13:08:07.477Z,999.8
2018-05-10T13:09:09.036Z,1000.0
2018-05-10T13:10:10.810Z,1000.1